Time;durP1;ratioP1;P1;durP2;ratioP2;P2;SDS_P1;SDS_P2;PMS_P1;PMS_P2;Temp;Humidity;BMP_temperature;BMP_pressure;BME280_temperature;BME280_humidity;BME280_pressure;Samples;Min_cycle;Max_cycle;Signal;HPM_P1;HPM_P2
2022/08/04 00:01:36;;;;;;;2.10;1.95;;;18.60;98.40;;;;;;4177542;28;20500;-67
2022/08/04 00:03:47;;;;;;;2.15;1.85;;;18.50;98.90;;;;;;4178359;28;20037;-65
2022/08/04 00:06:07;;;;;;;3.85;1.98;;;18.50;99.00;;;;;;4176769;28;20041;-66
2022/08/04 00:08:43;;;;;;;7.20;2.25;;;18.50;99.20;;;;;;4178532;28;20040;-67
2022/08/04 00:10:49;;;;;;;3.15;1.67;;;18.40;99.90;;;;;;4177483;28;20414;-65
2022/08/04 00:12:53;;;;;;;3.00;1.88;;;18.40;99.60;;;;;;4177718;28;20095;-66
2022/08/04 00:14:57;;;;;;;2.95;1.98;;;18.40;99.80;;;;;;4177002;28;20045;-65
2022/08/04 00:17:01;;;;;;;4.35;2.25;;;18.40;99.90;;;;;;4178335;28;20040;-65
2022/08/04 00:19:10;;;;;;;2.42;1.83;;;18.40;99.90;;;;;;4176639;28;20052;-65
2022/08/04 00:21:14;;;;;;;2.38;2.10;;;18.40;99.90;;;;;;4178944;28;20074;-66
2022/08/04 00:23:16;;;;;;;6.00;1.92;;;18.40;99.90;;;;;;4177216;28;20041;-66
2022/08/04 00:25:18;;;;;;;2.28;1.83;;;18.40;99.90;;;;;;4178094;28;20045;-65
2022/08/04 00:27:19;;;;;;;2.50;1.98;;;18.30;99.90;;;;;;4176732;28;20021;-65
2022/08/04 00:29:21;;;;;;;3.95;2.05;;;18.40;99.90;;;;;;4178180;28;20120;-64
2022/08/04 00:31:23;;;;;;;1.77;1.67;;;18.40;99.90;;;;;;4176448;28;20497;-66
2022/08/04 00:33:25;;;;;;;2.03;1.80;;;18.40;99.90;;;;;;4178382;28;20032;-65
2022/08/04 00:35:28;;;;;;;2.78;2.58;;;18.30;99.90;;;;;;4177011;28;20477;-65
2022/08/04 00:37:29;;;;;;;1.85;1.65;;;18.40;99.90;;;;;;4178339;28;20461;-65
2022/08/04 00:39:31;;;;;;;7.43;1.90;;;18.40;99.90;;;;;;4176818;28;20485;-70
2022/08/04 00:41:41;;;;;;;3.90;2.50;;;18.40;99.90;;;;;;4177834;28;20534;-66
2022/08/04 00:43:51;;;;;;;2.10;1.90;;;18.40;99.90;;;;;;4177206;28;20037;-72
2022/08/04 00:46:02;;;;;;;5.20;2.03;;;18.40;99.90;;;;;;4177590;28;20083;-66
2022/08/04 00:48:13;;;;;;;2.88;2.05;;;18.40;99.90;;;;;;4177242;28;20041;-65
2022/08/04 00:50:32;;;;;;;2.00;1.80;;;18.40;99.90;;;;;;4177898;28;20021;-65
2022/08/04 00:52:45;;;;;;;2.28;2.08;;;18.30;99.90;;;;;;4177405;28;20080;-65
2022/08/04 00:54:55;;;;;;;3.72;1.90;;;18.30;99.90;;;;;;4178247;28;20421;-66
2022/08/04 00:57:26;;;;;;;3.90;2.05;;;18.20;99.90;;;;;;4176934;28;20036;-66
2022/08/04 00:59:37;;;;;;;2.75;1.88;;;18.20;99.90;;;;;;4161385;28;20049;-65
2022/08/04 01:01:50;;;;;;;3.03;1.67;;;18.20;99.90;;;;;;4160323;28;20033;-66
2022/08/04 01:04:02;;;;;;;2.22;2.03;;;18.20;99.90;;;;;;4161649;28;20470;-65
2022/08/04 01:06:09;;;;;;;2.08;1.90;;;18.20;99.90;;;;;;4161611;28;20041;-66
2022/08/04 01:08:29;;;;;;;2.00;1.90;;;18.20;99.90;;;;;;4176549;28;20079;-66
2022/08/04 01:10:42;;;;;;;2.72;2.22;;;18.10;99.90;;;;;;4175321;28;20447;-66
2022/08/04 01:13:09;;;;;;;4.63;1.88;;;18.10;99.90;;;;;;4178006;28;20370;-69
2022/08/04 01:15:47;;;;;;;4.25;2.10;;;18.10;99.90;;;;;;4176738;28;20037;-66
2022/08/04 01:18:04;;;;;;;5.00;1.95;;;18.00;99.90;;;;;;4177492;28;20472;-66
2022/08/04 01:20:10;;;;;;;3.85;2.65;;;18.10;99.90;;;;;;4177299;28;20021;-67
2022/08/04 01:22:18;;;;;;;5.43;2.50;;;18.00;99.90;;;;;;4177536;28;20094;-66
2022/08/04 01:24:58;;;;;;;4.28;2.78;;;17.90;99.90;;;;;;4177115;28;20079;-65
2022/08/04 01:27:26;;;;;;;3.35;2.60;;;17.80;99.90;;;;;;4176734;28;20086;-66
2022/08/04 01:29:32;;;;;;;3.60;2.85;;;17.80;99.90;;;;;;4177794;28;20029;-66
2022/08/04 01:31:41;;;;;;;8.05;3.33;;;17.80;99.90;;;;;;4176479;28;20025;-65
2022/08/04 01:33:45;;;;;;;4.32;3.30;;;17.80;99.90;;;;;;4178000;28;20415;-65
2022/08/04 01:35:53;;;;;;;4.70;3.30;;;17.70;99.90;;;;;;4176699;28;20044;-65
2022/08/04 01:38:34;;;;;;;8.10;4.18;;;17.70;99.90;;;;;;4177811;28;20094;-66
2022/08/04 01:40:37;;;;;;;5.50;4.60;;;17.70;99.90;;;;;;4178014;28;20033;-66
2022/08/04 01:42:40;;;;;;;4.82;4.25;;;17.50;99.90;;;;;;4180926;28;20029;-64
2022/08/04 01:44:41;;;;;;;6.30;4.00;;;17.50;99.90;;;;;;4179539;28;20060;-66
2022/08/04 01:46:45;;;;;;;5.28;4.05;;;17.40;99.90;;;;;;4180895;28;20021;-67
2022/08/04 01:48:51;;;;;;;5.05;4.07;;;17.40;99.90;;;;;;4179054;28;20534;-65
2022/08/04 01:50:55;;;;;;;6.05;4.50;;;17.30;99.90;;;;;;4180727;28;20049;-65
2022/08/04 01:52:57;;;;;;;9.23;4.55;;;17.30;99.90;;;;;;4179500;28;20480;-66
2022/08/04 01:55:01;;;;;;;6.28;4.40;;;17.20;99.90;;;;;;4180313;28;20036;-65
2022/08/04 01:57:05;;;;;;;6.90;3.75;;;17.20;99.90;;;;;;4179854;28;20041;-65
2022/08/04 01:59:07;;;;;;;6.10;3.85;;;17.20;99.90;;;;;;4179490;28;20045;-65
2022/08/04 02:01:10;;;;;;;5.40;3.30;;;17.10;99.90;;;;;;4163385;28;20021;-65
2022/08/04 02:03:13;;;;;;;3.40;3.10;;;17.20;99.90;;;;;;4163052;28;20083;-64
2022/08/04 02:05:16;;;;;;;5.18;3.60;;;17.20;99.90;;;;;;4163768;28;20033;-66
2022/08/04 02:07:26;;;;;;;4.50;3.60;;;17.20;99.90;;;;;;4162810;28;20025;-64
2022/08/04 02:10:19;;;;;;;5.78;3.47;;;17.20;99.90;;;;;;4178831;28;20504;-65
2022/08/04 02:12:26;;;;;;;4.78;3.38;;;17.20;99.90;;;;;;4142823;28;20387;-66
2022/08/04 02:14:44;;;;;;;6.38;3.10;;;17.20;99.90;;;;;;4175341;28;20028;-69
2022/08/04 02:16:51;;;;;;;5.70;3.58;;;17.10;99.90;;;;;;4180043;28;20040;-65
2022/08/04 02:19:19;;;;;;;2.55;2.35;;;17.10;99.90;;;;;;4178779;28;20029;-68
2022/08/04 02:21:24;;;;;;;5.10;2.60;;;17.10;99.90;;;;;;4180158;28;20139;-72
2022/08/04 02:23:30;;;;;;;2.33;2.13;;;17.00;99.90;;;;;;4178933;28;20037;-65
2022/08/04 02:25:39;;;;;;;2.08;1.98;;;17.00;99.90;;;;;;4180251;28;20029;-65
2022/08/04 02:28:03;;;;;;;3.00;2.33;;;16.90;99.90;;;;;;4178507;28;20037;-68
2022/08/04 02:30:05;;;;;;;3.45;3.10;;;16.90;99.90;;;;;;4179616;28;20091;-65
2022/08/04 02:32:18;;;;;;;3.13;1.98;;;16.90;99.90;;;;;;4178506;28;20033;-71
2022/08/04 02:34:22;;;;;;;4.68;2.17;;;16.90;99.90;;;;;;4180116;28;20028;-66
2022/08/04 02:36:34;;;;;;;2.38;2.03;;;16.90;99.90;;;;;;4178380;28;20037;-65
2022/08/04 02:38:54;;;;;;;3.78;2.30;;;16.90;99.90;;;;;;4179848;28;20086;-65
2022/08/04 02:40:58;;;;;;;3.38;2.00;;;16.80;99.90;;;;;;4178850;28;20071;-65
2022/08/04 02:43:03;;;;;;;6.20;2.20;;;16.80;99.90;;;;;;4180033;28;20074;-65
2022/08/04 02:45:05;;;;;;;3.08;2.03;;;16.80;99.90;;;;;;4178288;28;20029;-65
2022/08/04 02:47:08;;;;;;;3.97;2.28;;;16.90;99.90;;;;;;4179855;28;20428;-73
2022/08/04 02:49:10;;;;;;;2.75;2.20;;;16.80;99.90;;;;;;4178719;28;20074;-65
2022/08/04 02:51:15;;;;;;;6.25;2.30;;;16.80;99.90;;;;;;4179268;28;20021;-65
2022/08/04 02:53:20;;;;;;;3.83;2.30;;;16.80;99.90;;;;;;4178784;28;20079;-65
2022/08/04 02:55:22;;;;;;;2.78;2.25;;;16.80;99.90;;;;;;4179128;28;20098;-65
2022/08/04 02:57:29;;;;;;;6.20;2.50;;;16.80;99.90;;;;;;4179094;28;20103;-65
2022/08/04 02:59:58;;;;;;;4.78;2.50;;;16.80;99.90;;;;;;4178473;28;20048;-73
2022/08/04 03:01:59;;;;;;;5.68;2.58;;;16.80;99.90;;;;;;4177384;28;20053;-63
2022/08/04 03:04:08;;;;;;;2.85;2.00;;;16.80;99.90;;;;;;4178925;28;20021;-64
2022/08/04 03:06:10;;;;;;;3.15;2.33;;;16.80;99.90;;;;;;4178857;28;20370;-65
2022/08/04 03:08:17;;;;;;;3.70;2.55;;;16.70;99.90;;;;;;4178741;28;20455;-74
2022/08/04 03:10:20;;;;;;;3.50;2.47;;;16.70;99.90;;;;;;4178664;28;20800;-64
2022/08/04 03:12:59;;;;;;;5.07;2.58;;;16.70;99.90;;;;;;4178470;28;20028;-65
2022/08/04 03:15:39;;;;;;;10.02;2.65;;;16.70;99.90;;;;;;4176833;28;20504;-65
2022/08/04 03:18:00;;;;;;;3.60;2.42;;;16.70;99.90;;;;;;4179291;28;20041;-65
2022/08/04 03:20:26;;;;;;;5.30;2.70;;;16.80;99.90;;;;;;4177705;28;20044;-65
2022/08/04 03:23:23;;;;;;;5.82;2.85;;;16.90;99.90;;;;;;4179611;28;20037;-73
2022/08/04 03:26:01;;;;;;;3.78;2.83;;;17.00;99.90;;;;;;4154350;28;20045;-67
2022/08/04 03:28:39;;;;;;;4.93;3.40;;;17.20;99.90;;;;;;4161584;28;20058;-65
2022/08/04 03:31:18;;;;;;;6.13;4.22;;;17.50;99.90;;;;;;4168965;28;20033;-66
2022/08/04 03:33:43;;;;;;;9.48;4.00;;;17.80;99.90;;;;;;4176402;28;20484;-64
2022/08/04 03:35:55;;;;;;;10.45;3.53;;;18.10;99.90;;;;;;4178700;28;20157;-65
2022/08/04 03:38:18;;;;;;;7.72;3.13;;;18.40;99.90;;;;;;4177129;28;20451;-64
2022/08/04 03:40:30;;;;;;;7.88;2.70;;;18.70;99.90;;;;;;4162356;28;20033;-65
2022/08/04 03:42:37;;;;;;;10.55;3.42;;;18.90;99.90;;;;;;4163983;28;20586;-64
2022/08/04 03:45:06;;;;;;;8.98;3.22;;;19.10;99.90;;;;;;4177298;28;20021;-65
2022/08/04 03:47:38;;;;;;;6.47;2.67;;;19.20;99.90;;;;;;4172586;28;20060;-64
2022/08/04 03:49:55;;;;;;;8.40;2.60;;;19.40;99.90;;;;;;4168735;28;20480;-64
2022/08/04 03:55:17;;;;;;;7.78;2.95;;;20.00;99.90;;;;;;4160862;28;20372;-67
2022/08/04 03:57:39;;;;;;;5.90;3.17;;;20.40;99.90;;;;;;4143604;28;20049;-62
2022/08/04 04:00:12;;;;;;;7.05;2.47;;;20.70;99.90;;;;;;4142169;28;20450;-62
2022/08/04 04:02:39;;;;;;;12.73;3.55;;;20.90;99.90;;;;;;4151069;28;20448;-66
2022/08/04 04:05:09;;;;;;;4.80;2.47;;;21.20;99.90;;;;;;4168507;28;20037;-64
2022/08/04 04:07:37;;;;;;;4.20;2.80;;;21.40;99.90;;;;;;4173778;28;20566;-64
2022/08/04 04:09:54;;;;;;;7.55;3.20;;;22.00;99.90;;;;;;4178242;28;20461;-64
2022/08/04 04:12:16;;;;;;;6.25;3.15;;;22.30;99.80;;;;;;4177115;28;20025;-65
2022/08/04 04:14:26;;;;;;;4.80;2.42;;;22.60;99.10;;;;;;4178121;28;20106;-74
2022/08/04 04:16:49;;;;;;;10.55;3.22;;;22.90;99.20;;;;;;4177073;28;20033;-67
2022/08/04 04:18:56;;;;;;;5.60;3.08;;;23.20;97.70;;;;;;4168788;28;20039;-66
2022/08/04 04:21:12;;;;;;;5.75;2.97;;;23.50;98.00;;;;;;4177149;28;20044;-67
2022/08/04 04:23:32;;;;;;;2.80;2.05;;;24.00;96.90;;;;;;4178174;28;20082;-75
2022/08/04 04:25:48;;;;;;;3.90;2.72;;;24.50;96.60;;;;;;4176967;28;20123;-68
2022/08/04 04:28:31;;;;;;;9.05;2.67;;;25.00;95.20;;;;;;4177801;28;20421;-74
2022/08/04 04:30:48;;;;;;;4.40;2.30;;;25.50;94.00;;;;;;4177641;28;20043;-66
2022/08/04 04:32:58;;;;;;;5.85;3.03;;;25.70;93.30;;;;;;4176950;28;20467;-66
2022/08/04 04:35:24;;;;;;;7.90;2.55;;;25.90;93.00;;;;;;4177687;28;20029;-65
2022/08/04 04:37:49;;;;;;;7.43;2.78;;;26.20;92.30;;;;;;4176873;28;20052;-64
2022/08/04 04:39:50;;;;;;;3.97;2.40;;;26.60;91.70;;;;;;4177607;28;20033;-70
2022/08/04 04:42:23;;;;;;;5.60;2.80;;;27.00;91.90;;;;;;4176551;28;20103;-65
2022/08/04 04:44:47;;;;;;;4.43;2.63;;;27.40;89.30;;;;;;4177753;28;20075;-68
2022/08/04 04:47:22;;;;;;;8.20;4.00;;;27.40;90.40;;;;;;4176416;28;20075;-67
2022/08/04 04:50:13;;;;;;;8.88;2.90;;;27.30;87.90;;;;;;4177776;28;20029;-75
2022/08/04 04:52:27;;;;;;;15.27;3.00;;;27.30;87.50;;;;;;4164726;28;20049;-73
2022/08/04 04:55:04;;;;;;;9.38;3.00;;;27.10;88.40;;;;;;4176489;28;20567;-71
2022/08/04 04:57:08;;;;;;;11.20;3.08;;;27.50;86.90;;;;;;4177892;28;20079;-66
2022/08/04 04:59:11;;;;;;;8.35;2.85;;;27.70;88.70;;;;;;4176489;28;20452;-69
2022/08/04 05:01:15;;;;;;;10.82;2.67;;;28.00;87.70;;;;;;4177892;28;20542;-66
2022/08/04 05:04:10;;;;;;;16.05;3.70;;;27.80;86.80;;;;;;4176829;28;20426;-65
2022/08/04 05:06:30;;;;;;;7.20;3.35;;;27.40;84.20;;;;;;4126943;28;20042;-64
2022/08/04 05:09:08;;;;;;;7.90;3.47;;;27.40;85.50;;;;;;4168845;28;20099;-65
2022/08/04 05:11:30;;;;;;;9.85;3.10;;;27.80;84.70;;;;;;4177683;28;20029;-70
2022/08/04 05:13:44;;;;;;;23.52;4.13;;;28.30;83.20;;;;;;4178334;28;20468;-67
2022/08/04 05:15:48;;;;;;;18.50;4.28;;;28.20;83.00;;;;;;4180641;28;20487;-69
2022/08/04 05:17:52;;;;;;;18.83;5.15;;;28.30;83.70;;;;;;4180002;28;20086;-66
2022/08/04 05:20:02;;;;;;;16.25;4.45;;;28.10;83.20;;;;;;4179382;28;20025;-65
2022/08/04 05:22:11;;;;;;;17.83;5.05;;;28.40;82.70;;;;;;4180513;28;20029;-66
2022/08/04 05:24:19;;;;;;;24.35;4.93;;;28.20;82.30;;;;;;4180451;28;20029;-64
2022/08/04 05:26:25;;;;;;;19.02;5.22;;;28.30;82.50;;;;;;4179692;28;20025;-65
2022/08/04 05:28:37;;;;;;;17.48;4.85;;;28.20;81.70;;;;;;4180507;28;20087;-65
2022/08/04 05:30:47;;;;;;;17.13;4.95;;;28.60;80.90;;;;;;4179689;28;20075;-65
2022/08/04 05:33:14;;;;;;;23.58;5.93;;;29.10;81.00;;;;;;4180539;28;20033;-65
2022/08/04 05:35:40;;;;;;;24.77;5.30;;;29.50;79.30;;;;;;4179427;28;20034;-65
2022/08/04 05:37:45;;;;;;;18.95;4.72;;;29.50;78.40;;;;;;4179227;28;20102;-64
2022/08/04 05:39:56;;;;;;;18.50;4.50;;;29.40;78.30;;;;;;4179987;28;20021;-63
2022/08/04 05:41:58;;;;;;;15.50;4.03;;;28.70;78.50;;;;;;4179664;28;20063;-65
2022/08/04 05:44:00;;;;;;;13.75;4.75;;;28.00;79.70;;;;;;4179228;28;20182;-66
2022/08/04 05:46:03;;;;;;;15.13;3.55;;;27.80;80.40;;;;;;4179891;28;20028;-65
2022/08/04 05:48:07;;;;;;;18.23;3.85;;;27.20;81.00;;;;;;4179507;28;20476;-66
2022/08/04 05:50:08;;;;;;;13.57;3.83;;;27.30;81.20;;;;;;4179960;28;20094;-67
2022/08/04 05:52:12;;;;;;;11.35;3.65;;;27.70;81.00;;;;;;4179270;28;20075;-66
2022/08/04 05:54:15;;;;;;;12.63;3.58;;;27.60;80.90;;;;;;4180288;28;20032;-64
2022/08/04 05:56:17;;;;;;;16.40;3.55;;;27.30;80.70;;;;;;4179381;28;20472;-67
2022/08/04 05:58:19;;;;;;;11.18;3.40;;;27.20;81.10;;;;;;4179922;28;20386;-65
2022/08/04 06:00:22;;;;;;;14.73;3.65;;;27.20;80.90;;;;;;4178947;28;20033;-65
2022/08/04 06:02:24;;;;;;;8.55;2.95;;;27.40;80.80;;;;;;4180291;28;20033;-68
2022/08/04 06:04:36;;;;;;;11.43;3.10;;;27.20;81.00;;;;;;4178409;28;20101;-64
2022/08/04 06:06:39;;;;;;;10.70;3.10;;;27.30;81.00;;;;;;4180342;28;20048;-64
2022/08/04 06:08:40;;;;;;;19.77;9.75;;;27.30;80.90;;;;;;4179002;28;20418;-67
2022/08/04 06:10:44;;;;;;;11.93;4.22;;;26.90;80.70;;;;;;4179973;28;20033;-65
2022/08/04 06:12:54;;;;;;;5.63;2.58;;;26.70;81.10;;;;;;4177337;28;20123;-64
2022/08/04 06:14:57;;;;;;;7.43;2.95;;;26.60;81.80;;;;;;4179771;28;20086;-66
2022/08/04 06:17:00;;;;;;;12.80;2.88;;;27.10;81.10;;;;;;4178721;28;20493;-65
2022/08/04 06:19:06;;;;;;;9.88;3.45;;;27.40;80.30;;;;;;4179610;28;20419;-66
2022/08/04 06:21:10;;;;;;;14.20;2.95;;;26.90;80.20;;;;;;4178440;28;20094;-66
2022/08/04 06:23:15;;;;;;;16.67;3.45;;;26.30;81.20;;;;;;4179870;28;20028;-67
2022/08/04 06:25:21;;;;;;;13.27;3.38;;;26.10;82.40;;;;;;4178217;28;20025;-64
2022/08/04 06:27:23;;;;;;;7.93;2.72;;;25.90;82.80;;;;;;4179586;28;20063;-65
2022/08/04 06:29:31;;;;;;;13.65;3.10;;;26.20;82.40;;;;;;4179177;28;20071;-66
2022/08/04 06:31:45;;;;;;;8.38;2.50;;;26.00;82.50;;;;;;4179252;28;20017;-71
2022/08/04 06:33:48;;;;;;;12.57;3.13;;;25.90;83.10;;;;;;4178870;28;20111;-65
2022/08/04 06:35:56;;;;;;;8.27;3.00;;;26.40;82.90;;;;;;4178889;28;20025;-71
2022/08/04 06:37:58;;;;;;;9.25;2.42;;;27.00;81.70;;;;;;4178890;28;20087;-66
2022/08/04 06:40:02;;;;;;;9.23;2.80;;;26.80;81.30;;;;;;4178903;28;21359;-66
2022/08/04 06:42:04;;;;;;;6.63;2.50;;;26.30;81.90;;;;;;4179453;28;20025;-75
2022/08/04 06:44:09;;;;;;;10.07;2.60;;;26.20;82.50;;;;;;4178153;28;20037;-67
2022/08/04 06:46:10;;;;;;;11.63;2.72;;;26.20;82.70;;;;;;4179213;28;20013;-65
2022/08/04 06:48:15;;;;;;;11.63;2.47;;;25.90;83.30;;;;;;4178200;28;20079;-66
2022/08/04 06:50:17;;;;;;;5.15;2.40;;;25.40;84.10;;;;;;4179308;28;20086;-65
2022/08/04 06:52:19;;;;;;;5.00;2.35;;;25.50;84.50;;;;;;4178581;28;20074;-66
2022/08/04 06:54:20;;;;;;;9.43;2.83;;;25.50;84.60;;;;;;4179388;28;20029;-65
2022/08/04 06:56:23;;;;;;;7.80;2.22;;;25.50;84.50;;;;;;4176771;28;20036;-67
2022/08/04 06:58:25;;;;;;;5.07;2.40;;;25.50;84.70;;;;;;4178940;28;20049;-64
2022/08/04 07:00:28;;;;;;;9.35;2.42;;;25.50;84.70;;;;;;4177928;28;20522;-64
2022/08/04 07:02:34;;;;;;;15.27;3.13;;;25.60;84.80;;;;;;4179447;28;20033;-67
2022/08/04 07:04:35;;;;;;;14.48;2.80;;;25.90;84.60;;;;;;4177962;28;20025;-64
2022/08/04 07:06:37;;;;;;;6.13;2.63;;;25.70;84.80;;;;;;4179096;28;20476;-65
2022/08/04 07:08:39;;;;;;;11.55;3.13;;;25.40;85.60;;;;;;4178024;28;20075;-73
2022/08/04 07:10:40;;;;;;;17.92;3.03;;;25.40;85.80;;;;;;4178683;28;20412;-66
2022/08/04 07:12:42;;;;;;;7.38;2.97;;;25.60;85.90;;;;;;4178523;28;20098;-65
2022/08/04 07:14:44;;;;;;;4.40;2.25;;;25.70;85.60;;;;;;4178303;28;20803;-65
2022/08/04 07:16:45;;;;;;;6.20;2.60;;;25.70;85.70;;;;;;4178668;28;20473;-65
2022/08/04 07:18:46;;;;;;;6.28;2.05;;;25.70;85.90;;;;;;4177963;28;20033;-70
2022/08/04 07:20:48;;;;;;;10.25;2.90;;;25.70;85.90;;;;;;4178957;28;20083;-66
2022/08/04 07:22:49;;;;;;;4.05;2.40;;;25.90;86.00;;;;;;4178260;28;20037;-65
2022/08/04 07:24:55;;;;;;;4.18;2.50;;;25.80;86.00;;;;;;4178823;28;20134;-68
2022/08/04 07:26:56;;;;;;;7.78;2.30;;;25.60;86.60;;;;;;4177637;28;20021;-67
2022/08/04 07:28:58;;;;;;;4.65;2.10;;;25.40;87.20;;;;;;4178840;28;20103;-67
2022/08/04 07:31:01;;;;;;;6.50;2.40;;;25.40;87.30;;;;;;4177750;28;20029;-77
2022/08/04 07:33:03;;;;;;;9.43;2.42;;;25.50;87.30;;;;;;4178994;28;20033;-70
2022/08/04 07:35:07;;;;;;;5.32;2.47;;;25.40;87.50;;;;;;4177589;28;20546;-65
2022/08/04 07:37:08;;;;;;;6.20;2.80;;;25.60;87.60;;;;;;4178341;28;20475;-72
2022/08/04 07:39:09;;;;;;;8.88;2.22;;;25.60;87.50;;;;;;4177583;28;20120;-66
2022/08/04 07:41:11;;;;;;;5.47;2.28;;;25.70;87.30;;;;;;4178332;28;20071;-65
2022/08/04 07:43:16;;;;;;;6.45;3.13;;;25.90;87.40;;;;;;4177000;28;20037;-65
2022/08/04 07:45:21;;;;;;;8.05;2.78;;;26.10;87.20;;;;;;4178224;28;20041;-68
2022/08/04 07:47:22;;;;;;;8.18;2.30;;;26.10;87.20;;;;;;4177730;28;20029;-66
2022/08/04 07:49:25;;;;;;;7.70;2.50;;;25.90;87.60;;;;;;4177245;28;20102;-71
2022/08/04 07:51:29;;;;;;;3.10;1.90;;;26.10;87.40;;;;;;4177463;28;20484;-66
2022/08/04 07:53:31;;;;;;;2.55;1.70;;;26.20;87.10;;;;;;4177816;28;20029;-74
2022/08/04 07:55:32;;;;;;;5.45;2.00;;;26.40;86.80;;;;;;4178272;28;20094;-66
2022/08/04 07:57:34;;;;;;;5.95;2.38;;;26.60;86.20;;;;;;4177324;28;20094;-71
2022/08/04 07:59:35;;;;;;;5.00;1.70;;;26.70;85.90;;;;;;4177980;28;20045;-65
2022/08/04 08:01:37;;;;;;;2.80;1.40;;;26.80;85.50;;;;;;4177239;28;20082;-72
2022/08/04 08:03:39;;;;;;;3.63;1.40;;;26.80;85.30;;;;;;4178288;28;20594;-66
2022/08/04 08:05:40;;;;;;;3.17;1.63;;;26.80;84.80;;;;;;4177169;28;20021;-73
2022/08/04 08:07:46;;;;;;;2.22;1.52;;;26.70;85.00;;;;;;4177966;28;20121;-67
2022/08/04 08:09:47;;;;;;;2.33;1.52;;;26.60;85.50;;;;;;4177248;28;20074;-65
2022/08/04 08:11:51;;;;;;;5.85;1.60;;;26.70;84.80;;;;;;4178306;28;20025;-74
2022/08/04 08:13:52;;;;;;;2.65;1.50;;;26.70;84.70;;;;;;4175354;28;20863;-76
2022/08/04 08:15:54;;;;;;;1.63;1.30;;;26.80;84.60;;;;;;4178170;28;20082;-68
2022/08/04 08:17:55;;;;;;;4.68;1.60;;;27.00;84.30;;;;;;4177039;28;20052;-68
2022/08/04 08:19:56;;;;;;;5.05;1.65;;;27.00;84.10;;;;;;4177628;28;20037;-66
2022/08/04 08:21:58;;;;;;;1.63;1.42;;;27.10;84.00;;;;;;4177401;28;20071;-66
2022/08/04 08:24:00;;;;;;;3.08;1.75;;;27.10;84.00;;;;;;4177482;28;20033;-69
2022/08/04 08:26:01;;;;;;;4.70;1.58;;;27.20;83.90;;;;;;4177298;28;20029;-66
2022/08/04 08:28:04;;;;;;;2.20;1.40;;;27.10;84.00;;;;;;4175193;28;20033;-67
2022/08/04 08:30:05;;;;;;;3.17;1.25;;;27.00;83.80;;;;;;4177218;28;20115;-68
2022/08/04 08:32:12;;;;;;;5.97;3.08;;;27.20;83.60;;;;;;4176479;28;20033;-68
2022/08/04 08:34:13;;;;;;;2.33;1.60;;;27.10;83.40;;;;;;4177954;28;20531;-72
2022/08/04 08:36:38;;;;;;;3.63;1.77;;;27.10;83.00;;;;;;4176782;28;20113;-66
2022/08/04 08:39:05;;;;;;;2.55;1.20;;;27.20;82.40;;;;;;4177829;28;20073;-75
2022/08/04 08:41:36;;;;;;;1.58;1.30;;;27.30;82.60;;;;;;4177071;28;20091;-76
2022/08/04 08:44:10;;;;;;;1.20;1.10;;;27.50;82.00;;;;;;4176847;28;20098;-69
2022/08/04 08:47:06;;;;;;;2.17;1.35;;;27.60;81.40;;;;;;4177745;28;20075;-74
2022/08/04 08:49:37;;;;;;;3.20;1.55;;;27.80;80.50;;;;;;4139055;28;20094;-75
2022/08/04 08:52:13;;;;;;;2.92;1.30;;;27.80;80.10;;;;;;4165836;28;20037;-66
2022/08/04 08:54:35;;;;;;;7.65;2.15;;;28.00;79.50;;;;;;4165893;28;20511;-65
2022/08/04 08:56:45;;;;;;;5.30;1.20;;;28.10;78.90;;;;;;4177003;28;20469;-66
2022/08/04 08:58:58;;;;;;;1.42;1.02;;;28.00;79.20;;;;;;4175419;28;20045;-77
2022/08/04 09:01:32;;;;;;;1.65;1.30;;;28.30;78.90;;;;;;4175236;28;20156;-69
2022/08/04 09:04:01;;;;;;;2.83;1.00;;;28.20;78.20;;;;;;4177645;28;20021;-73
2022/08/04 09:06:10;;;;;;;1.67;1.58;;;28.20;78.60;;;;;;4176433;28;20068;-67
2022/08/04 09:08:33;;;;;;;4.05;1.30;;;28.40;79.10;;;;;;4177719;28;20025;-66
2022/08/04 09:10:47;;;;;;;3.80;1.30;;;28.70;78.40;;;;;;4176309;28;20509;-67
2022/08/04 09:13:07;;;;;;;2.85;1.20;;;28.80;77.60;;;;;;4177859;28;20051;-68
2022/08/04 09:15:20;;;;;;;1.33;1.23;;;28.60;76.20;;;;;;4176527;28;20381;-67
2022/08/04 09:17:32;;;;;;;3.58;1.00;;;28.60;76.50;;;;;;4177610;28;20024;-66
2022/08/04 09:19:39;;;;;;;1.27;1.17;;;28.60;76.50;;;;;;4176246;28;20037;-66
2022/08/04 09:21:52;;;;;;;1.70;1.25;;;28.70;76.60;;;;;;4177414;28;20091;-65
2022/08/04 09:24:37;;;;;;;4.03;1.30;;;28.70;76.20;;;;;;4176563;28;20044;-72
2022/08/04 09:26:51;;;;;;;3.58;1.13;;;28.60;75.80;;;;;;4126025;28;20046;-66
2022/08/04 09:29:02;;;;;;;4.22;0.90;;;28.50;76.00;;;;;;4176231;28;20089;-65
2022/08/04 09:31:12;;;;;;;2.60;1.30;;;28.40;75.90;;;;;;4176948;28;20424;-69
2022/08/04 09:33:29;;;;;;;2.22;1.05;;;28.40;75.90;;;;;;4176765;28;20441;-65
2022/08/04 09:35:47;;;;;;;2.60;1.23;;;28.40;75.50;;;;;;4176708;28;20527;-67
2022/08/04 09:38:11;;;;;;;4.55;1.27;;;28.60;74.50;;;;;;4176885;28;20041;-71
2022/08/04 09:40:15;;;;;;;4.57;1.60;;;28.70;74.90;;;;;;4176350;28;20063;-66
2022/08/04 09:42:39;;;;;;;2.20;1.27;;;28.70;74.10;;;;;;4177090;28;20122;-69
2022/08/04 09:44:59;;;;;;;1.45;1.20;;;28.70;72.70;;;;;;4176292;28;20029;-66
2022/08/04 09:47:12;;;;;;;1.60;1.40;;;28.80;73.40;;;;;;4177257;28;20029;-65
2022/08/04 09:49:17;;;;;;;2.00;1.30;;;28.90;73.70;;;;;;4176204;28;20082;-65
2022/08/04 09:51:39;;;;;;;5.57;0.95;;;28.80;73.80;;;;;;4177323;28;20032;-65
2022/08/04 09:54:11;;;;;;;1.67;1.33;;;28.60;73.60;;;;;;4176357;28;20535;-70
2022/08/04 09:56:23;;;;;;;2.40;1.67;;;28.70;73.80;;;;;;4175391;28;20040;-71
2022/08/04 09:58:42;;;;;;;2.10;0.82;;;28.90;73.40;;;;;;4175551;28;20110;-66
2022/08/04 10:00:48;;;;;;;2.47;1.25;;;29.00;72.60;;;;;;4178902;28;20471;-65
2022/08/04 10:02:53;;;;;;;1.65;1.30;;;28.90;72.50;;;;;;4179016;28;20103;-66
2022/08/04 10:04:58;;;;;;;0.98;0.90;;;28.80;72.70;;;;;;4180011;28;20029;-66
2022/08/04 10:07:26;;;;;;;1.23;0.90;;;28.80;72.60;;;;;;4178095;28;20095;-66
2022/08/04 10:09:44;;;;;;;5.55;1.25;;;28.90;71.50;;;;;;4179476;28;20041;-66
2022/08/04 10:12:26;;;;;;;1.80;1.08;;;29.10;71.60;;;;;;4178641;28;20087;-67
2022/08/04 10:14:46;;;;;;;3.03;1.20;;;29.10;70.80;;;;;;4127995;28;20042;-68
2022/08/04 10:17:00;;;;;;;3.30;1.30;;;28.80;70.10;;;;;;4178947;28;20049;-66
2022/08/04 10:19:09;;;;;;;2.85;1.23;;;28.80;70.40;;;;;;4178727;28;20087;-72
2022/08/04 10:21:54;;;;;;;2.33;1.10;;;29.00;70.20;;;;;;4179557;28;20025;-68
2022/08/04 10:24:34;;;;;;;2.95;1.30;;;29.00;69.50;;;;;;4179250;28;20432;-70
2022/08/04 10:26:50;;;;;;;2.50;1.35;;;29.20;69.30;;;;;;4149186;28;20090;-67
2022/08/04 10:28:59;;;;;;;1.52;1.42;;;29.30;68.30;;;;;;4178225;28;20463;-68
2022/08/04 10:31:05;;;;;;;5.28;1.40;;;29.30;69.10;;;;;;4179648;28;20082;-74
2022/08/04 10:33:24;;;;;;;1.73;1.08;;;29.20;69.00;;;;;;4178528;28;20037;-74
2022/08/04 10:35:31;;;;;;;1.98;1.20;;;29.30;68.80;;;;;;4179210;28;20041;-76
2022/08/04 10:37:59;;;;;;;6.72;1.60;;;29.20;68.50;;;;;;4178644;28;20033;-65
2022/08/04 10:40:39;;;;;;;3.67;1.50;;;29.20;67.30;;;;;;4179546;28;20542;-68
2022/08/04 10:42:52;;;;;;;3.78;2.08;;;29.10;67.70;;;;;;4179245;28;20075;-66
2022/08/04 10:45:18;;;;;;;3.55;2.00;;;29.00;67.30;;;;;;4178958;28;20087;-67
2022/08/04 10:47:25;;;;;;;4.32;2.25;;;28.90;67.30;;;;;;4179283;28;20383;-69
2022/08/04 10:49:26;;;;;;;4.88;2.53;;;28.90;67.80;;;;;;4177143;28;20025;-69
2022/08/04 10:51:46;;;;;;;5.53;2.10;;;29.00;67.90;;;;;;4178971;28;20934;-68
2022/08/04 10:54:02;;;;;;;6.75;2.17;;;29.20;67.20;;;;;;4178756;28;20087;-67
2022/08/04 10:56:12;;;;;;;4.78;2.97;;;29.40;67.40;;;;;;4179104;28;20037;-68
2022/08/04 10:58:17;;;;;;;;;;;29.60;67.00;;;;;;4178140;28;20099;-66
2022/08/04 11:00:24;;;;;;;4.68;2.33;;;29.80;65.90;;;;;;4179154;28;20008;-66
2022/08/04 11:03:02;;;;;;;2.20;2.00;;;29.90;66.20;;;;;;4178323;28;20021;-68
2022/08/04 11:05:11;;;;;;;3.67;1.90;;;30.00;65.80;;;;;;4179168;28;20094;-68
2022/08/04 11:07:14;;;;;;;2.90;1.90;;;30.20;66.10;;;;;;4177770;28;20028;-66
2022/08/04 11:09:16;;;;;;;4.80;2.00;;;30.30;65.80;;;;;;4179126;28;20075;-66
2022/08/04 11:11:36;;;;;;;3.35;1.70;;;30.30;65.80;;;;;;4177252;28;20083;-66
2022/08/04 11:13:46;;;;;;;12.82;2.15;;;30.40;65.50;;;;;;4179019;28;20083;-66
2022/08/04 11:15:54;;;;;;;;;;;30.40;66.20;;;;;;4176724;28;20118;-66
2022/08/04 11:18:04;;;;;;;5.68;2.20;;;30.20;65.30;;;;;;4179228;28;20241;-73
2022/08/04 11:20:33;;;;;;;4.53;2.03;;;29.90;65.80;;;;;;4177470;28;20491;-66
2022/08/04 11:22:40;;;;;;;2.90;1.20;;;29.70;65.50;;;;;;4179286;28;20082;-66
2022/08/04 11:25:13;;;;;;;2.50;1.45;;;29.50;66.10;;;;;;4178054;28;20021;-69
2022/08/04 11:27:21;;;;;;;8.38;1.65;;;29.40;66.10;;;;;;4179066;28;20037;-66
2022/08/04 11:29:55;;;;;;;2.40;1.60;;;29.40;66.40;;;;;;4177488;28;20102;-67
2022/08/04 11:32:00;;;;;;;5.90;1.40;;;29.30;66.00;;;;;;4178709;28;20475;-66